createdAt,value
2019-02-09T00:00:25.188Z,67.94
2019-02-09T00:02:56.993Z,67.90
2019-02-09T00:05:28.691Z,68.07
2019-02-09T00:08:00.153Z,68.03
2019-02-09T00:10:31.801Z,68.08
2019-02-09T00:13:03.340Z,68.02
2019-02-09T00:15:34.931Z,68.00
2019-02-09T00:18:06.738Z,67.97
2019-02-09T00:20:38.532Z,68.09
2019-02-09T00:23:10.332Z,67.93
2019-02-09T00:25:42.253Z,67.91
2019-02-09T00:28:13.799Z,68.06
2019-02-09T00:30:45.405Z,67.91
2019-02-09T00:33:17.004Z,67.92
2019-02-09T00:35:48.771Z,67.98
2019-02-09T00:38:20.283Z,68.01
2019-02-09T00:40:51.815Z,67.97
2019-02-09T00:43:23.247Z,68.03
2019-02-09T00:45:54.832Z,67.81
2019-02-09T00:48:27.818Z,67.73
2019-02-09T00:50:59.751Z,67.67
2019-02-09T00:53:31.228Z,67.79
2019-02-09T00:56:02.943Z,67.82
2019-02-09T00:58:34.717Z,67.98
2019-02-09T01:01:06.475Z,67.93
2019-02-09T01:03:38.192Z,67.96
2019-02-09T01:06:09.989Z,67.94
2019-02-09T01:08:41.504Z,67.99
2019-02-09T01:11:13.041Z,68.05
2019-02-09T01:13:44.515Z,68.39
2019-02-09T01:16:16.008Z,68.49
2019-02-09T01:18:47.851Z,68.61
2019-02-09T01:21:19.461Z,68.65
2019-02-09T01:23:50.953Z,68.63
2019-02-09T01:26:22.724Z,68.41
2019-02-09T01:28:54.233Z,68.39
2019-02-09T01:31:25.779Z,68.39
2019-02-09T01:33:57.557Z,68.29
2019-02-09T01:36:29.025Z,68.34
2019-02-09T01:39:00.510Z,68.25
2019-02-09T01:41:33.732Z,68.12
2019-02-09T01:44:06.471Z,68.06
2019-02-09T01:46:37.968Z,68.24
2019-02-09T01:49:09.650Z,68.03
2019-02-09T01:51:41.434Z,68.02
2019-02-09T01:54:12.859Z,68.14
2019-02-09T01:56:44.548Z,68.25
2019-02-09T01:59:16.025Z,68.43
2019-02-09T02:01:47.888Z,68.61
2019-02-09T02:04:19.759Z,68.61
2019-02-09T02:06:51.362Z,68.75
2019-02-09T02:09:22.853Z,68.64
2019-02-09T02:11:54.592Z,68.85
2019-02-09T02:14:26.033Z,68.91
2019-02-09T02:16:57.559Z,68.83
2019-02-09T02:19:29.349Z,68.81
2019-02-09T02:22:00.834Z,68.95
2019-02-09T02:24:32.564Z,68.98
2019-02-09T02:27:04.157Z,69.02
2019-02-09T02:29:35.603Z,69.02
2019-02-09T02:32:07.318Z,68.96
2019-02-09T02:34:39.031Z,68.91
2019-02-09T02:37:10.741Z,68.75
2019-02-09T02:39:42.246Z,68.91
2019-02-09T02:42:14.055Z,69.07
2019-02-09T02:44:45.522Z,69.29
2019-02-09T02:47:17.287Z,69.22
2019-02-09T02:49:48.977Z,69.54
2019-02-09T02:52:20.779Z,69.39
2019-02-09T02:54:52.283Z,69.29
2019-02-09T02:57:24.404Z,69.55
2019-02-09T02:59:55.893Z,69.35
2019-02-09T03:02:27.384Z,69.52
2019-02-09T03:04:58.943Z,69.38
2019-02-09T03:07:30.428Z,69.32
2019-02-09T03:10:01.877Z,69.27
2019-02-09T03:12:33.814Z,69.25
2019-02-09T03:15:06.026Z,69.43
2019-02-09T03:17:37.865Z,69.49
2019-02-09T03:20:12.622Z,69.41
2019-02-09T03:22:44.352Z,69.29
2019-02-09T03:25:19.177Z,69.18
2019-02-09T03:27:51.051Z,69.36
2019-02-09T03:30:23.069Z,69.23
2019-02-09T03:32:54.617Z,69.08
2019-02-09T03:35:26.155Z,69.07
2019-02-09T03:37:57.875Z,69.21
2019-02-09T03:40:29.433Z,69.16
2019-02-09T03:43:00.994Z,68.92
2019-02-09T03:45:33.047Z,68.93
2019-02-09T03:48:05.222Z,69.06
2019-02-09T03:50:36.952Z,68.99
2019-02-09T03:53:08.629Z,68.95
2019-02-09T03:55:40.059Z,69.02
2019-02-09T03:58:12.055Z,68.95
2019-02-09T04:00:43.503Z,68.86
2019-02-09T04:03:15.258Z,68.78
2019-02-09T04:05:46.913Z,68.88
2019-02-09T04:08:18.670Z,68.89
2019-02-09T04:10:50.104Z,68.89
2019-02-09T04:13:21.728Z,68.98
2019-02-09T04:15:53.175Z,68.94
2019-02-09T04:18:24.715Z,68.80
2019-02-09T04:20:56.389Z,68.84
2019-02-09T04:23:27.947Z,68.79
2019-02-09T04:25:59.395Z,68.87
2019-02-09T04:28:30.939Z,68.80
2019-02-09T04:31:05.739Z,68.70
2019-02-09T04:33:36.075Z,68.82
2019-02-09T04:36:07.907Z,68.90
2019-02-09T04:38:39.683Z,68.67
2019-02-09T04:41:11.385Z,68.60
2019-02-09T04:43:42.882Z,68.65
2019-02-09T04:46:14.482Z,68.56
2019-02-09T04:48:45.925Z,68.58
2019-02-09T04:51:17.426Z,68.49
2019-02-09T04:53:49.098Z,68.42
2019-02-09T04:56:20.636Z,68.36
2019-02-09T04:58:52.161Z,68.62
2019-02-09T05:01:23.687Z,68.44
2019-02-09T05:03:55.284Z,68.41
2019-02-09T05:06:26.910Z,68.18
2019-02-09T05:08:58.425Z,68.33
2019-02-09T05:11:29.882Z,68.36
2019-02-09T05:14:01.442Z,68.37
2019-02-09T05:16:32.905Z,68.23
2019-02-09T05:19:04.675Z,68.08
2019-02-09T05:21:36.469Z,68.12
2019-02-09T05:24:08.163Z,68.09
2019-02-09T05:26:39.691Z,67.97
2019-02-09T05:29:11.182Z,67.91
2019-02-09T05:31:42.787Z,67.96
2019-02-09T05:34:14.303Z,68.06
2019-02-09T05:36:46.100Z,67.89
2019-02-09T05:39:17.576Z,67.87
2019-02-09T05:41:49.028Z,67.73
2019-02-09T05:44:20.793Z,67.78
2019-02-09T05:46:52.323Z,67.71
2019-02-09T05:49:24.123Z,67.61
2019-02-09T05:51:55.862Z,67.58
2019-02-09T05:54:27.625Z,67.56
2019-02-09T05:56:59.164Z,67.39
2019-02-09T05:59:31.343Z,67.57
2019-02-09T06:02:02.810Z,67.44
2019-02-09T06:04:34.555Z,67.39
2019-02-09T06:07:07.450Z,67.32
2019-02-09T06:09:39.206Z,67.29
2019-02-09T06:12:10.671Z,67.25
2019-02-09T06:14:42.413Z,67.13
2019-02-09T06:17:15.145Z,67.21
2019-02-09T06:19:46.957Z,67.32
2019-02-09T06:22:18.640Z,67.33
2019-02-09T06:24:50.283Z,67.30
2019-02-09T06:27:21.752Z,67.40
2019-02-09T06:29:53.585Z,67.19
2019-02-09T06:32:25.112Z,67.07
2019-02-09T06:34:56.600Z,67.31
2019-02-09T06:37:28.102Z,67.22
2019-02-09T06:39:59.812Z,67.09
2019-02-09T06:42:31.302Z,66.99
2019-02-09T06:45:02.757Z,66.70
2019-02-09T06:47:34.244Z,66.64
2019-02-09T06:50:07.961Z,66.50
2019-02-09T06:52:39.789Z,66.35
2019-02-09T06:55:13.627Z,66.11
2019-02-09T06:57:45.095Z,65.90
2019-02-09T07:00:18.949Z,65.86
2019-02-09T07:02:50.486Z,65.68
2019-02-09T07:05:22.293Z,65.60
2019-02-09T07:07:54.203Z,65.50
2019-02-09T07:10:26.437Z,65.31
2019-02-09T07:12:57.910Z,65.28
2019-02-09T07:15:29.820Z,65.51
2019-02-09T07:18:01.279Z,65.47
2019-02-09T07:20:32.904Z,65.40
2019-02-09T07:23:04.417Z,65.08
2019-02-09T07:25:36.093Z,64.95
2019-02-09T07:28:07.772Z,64.85
2019-02-09T07:30:39.541Z,64.68
2019-02-09T07:33:11.003Z,64.39
2019-02-09T07:35:43.867Z,64.21
2019-02-09T07:38:15.455Z,63.88
2019-02-09T07:40:47.128Z,63.67
2019-02-09T07:43:18.638Z,63.29
2019-02-09T07:45:50.195Z,62.97
2019-02-09T07:48:21.673Z,62.46
2019-02-09T07:50:54.294Z,62.40
2019-02-09T07:53:26.095Z,61.91
2019-02-09T07:55:57.595Z,61.64
2019-02-09T07:58:29.075Z,61.42
2019-02-09T08:01:00.718Z,61.17
2019-02-09T08:03:32.353Z,60.63
2019-02-09T08:06:04.417Z,60.30
2019-02-09T08:08:35.969Z,59.71
2019-02-09T08:11:09.231Z,59.08
2019-02-09T08:13:40.749Z,58.59
2019-02-09T08:16:12.589Z,57.94
2019-02-09T08:18:44.320Z,57.43
2019-02-09T08:21:16.436Z,57.22
2019-02-09T08:23:48.976Z,57.13
2019-02-09T08:26:20.749Z,57.27
2019-02-09T08:28:53.506Z,57.25
2019-02-09T08:31:25.394Z,57.50
2019-02-09T08:33:57.122Z,57.77
2019-02-09T08:36:29.290Z,57.63
2019-02-09T08:39:00.839Z,57.66
2019-02-09T08:41:34.170Z,57.44
2019-02-09T08:44:05.747Z,57.77
2019-02-09T08:46:38.072Z,57.74
2019-02-09T08:49:09.661Z,57.46
2019-02-09T08:51:41.621Z,57.34
2019-02-09T08:54:13.212Z,57.52
2019-02-09T08:56:44.745Z,57.23
2019-02-09T08:59:16.556Z,56.89
2019-02-09T09:01:48.126Z,56.56
2019-02-09T09:04:19.596Z,56.23
2019-02-09T09:06:51.342Z,56.13
2019-02-09T09:09:23.018Z,55.81
2019-02-09T09:11:54.754Z,55.83
2019-02-09T09:14:26.281Z,55.63
2019-02-09T09:16:58.279Z,55.69
2019-02-09T09:19:29.939Z,55.60
2019-02-09T09:22:01.570Z,54.71
2019-02-09T09:24:33.232Z,54.24
2019-02-09T09:27:05.019Z,54.27
2019-02-09T09:29:36.596Z,54.26
2019-02-09T09:32:08.412Z,54.02
2019-02-09T09:34:39.898Z,53.93
2019-02-09T09:37:11.441Z,53.96
2019-02-09T09:39:43.168Z,54.00
2019-02-09T09:42:16.978Z,53.68
2019-02-09T09:44:48.450Z,53.62
2019-02-09T09:47:19.980Z,53.51
2019-02-09T09:49:51.820Z,53.44
2019-02-09T09:52:23.639Z,53.46
2019-02-09T09:54:55.352Z,53.64
2019-02-09T09:57:27.038Z,53.53
2019-02-09T09:59:58.661Z,53.51
2019-02-09T10:02:36.452Z,53.56
2019-02-09T10:05:03.980Z,53.65
2019-02-09T10:07:35.924Z,53.58
2019-02-09T10:10:10.187Z,53.55
2019-02-09T10:12:41.986Z,53.73
2019-02-09T10:15:16.277Z,53.58
2019-02-09T10:17:48.386Z,53.68
2019-02-09T10:20:22.358Z,53.53
2019-02-09T10:22:54.158Z,53.76
2019-02-09T10:25:25.725Z,53.81
2019-02-09T10:27:57.362Z,53.95
2019-02-09T10:30:30.017Z,54.16
2019-02-09T10:33:02.249Z,53.73
2019-02-09T10:35:33.903Z,53.75
2019-02-09T10:38:05.825Z,53.59
2019-02-09T10:40:38.006Z,53.70
2019-02-09T10:43:09.846Z,53.43
2019-02-09T10:45:41.937Z,53.39
2019-02-09T10:48:13.791Z,53.10
2019-02-09T10:50:46.944Z,53.13
2019-02-09T10:53:18.973Z,53.01
2019-02-09T10:55:50.556Z,52.77
2019-02-09T10:58:22.247Z,52.62
2019-02-09T11:01:06.904Z,52.24
2019-02-09T11:03:38.509Z,52.35
2019-02-09T11:06:10.015Z,52.02
2019-02-09T11:08:41.688Z,51.84
2019-02-09T11:11:13.395Z,51.54
2019-02-09T11:13:45.298Z,51.41
2019-02-09T11:16:16.769Z,50.86
2019-02-09T11:18:48.607Z,50.60
2019-02-09T11:21:20.069Z,50.50
2019-02-09T11:23:52.035Z,50.27
2019-02-09T11:26:23.781Z,50.03
2019-02-09T11:28:55.301Z,49.62
2019-02-09T11:31:26.839Z,49.61
2019-02-09T11:33:58.553Z,49.05
2019-02-09T11:36:30.148Z,49.38
2019-02-09T11:39:01.951Z,49.21
2019-02-09T11:41:35.421Z,49.29
2019-02-09T11:44:07.219Z,49.12
2019-02-09T11:46:38.747Z,49.07
2019-02-09T11:49:10.546Z,48.88
2019-02-09T11:51:42.292Z,48.68
2019-02-09T11:54:14.147Z,48.42
2019-02-09T11:56:45.997Z,48.39
2019-02-09T11:59:17.786Z,48.63
2019-02-09T12:01:49.354Z,48.37
2019-02-09T12:04:21.197Z,48.13
2019-02-09T12:06:52.713Z,48.64
2019-02-09T12:09:24.392Z,48.37
2019-02-09T12:11:56.316Z,48.26
2019-02-09T12:14:28.243Z,48.26
2019-02-09T12:16:59.824Z,48.22
2019-02-09T12:19:31.382Z,48.40
2019-02-09T12:22:02.871Z,48.19
2019-02-09T12:24:34.580Z,47.93
2019-02-09T12:27:06.337Z,47.36
2019-02-09T12:29:38.174Z,48.10
2019-02-09T12:32:09.788Z,47.67
2019-02-09T12:34:41.692Z,47.43
2019-02-09T12:37:13.222Z,48.17
2019-02-09T12:39:45.288Z,47.67
2019-02-09T12:42:17.048Z,47.67
2019-02-09T12:44:48.837Z,47.84
2019-02-09T12:47:20.358Z,47.51
2019-02-09T12:49:52.328Z,48.26
2019-02-09T12:52:23.830Z,47.71
2019-02-09T12:54:55.748Z,47.33
2019-02-09T12:57:27.632Z,47.77
2019-02-09T12:59:59.179Z,47.95
2019-02-09T13:02:31.017Z,47.97
2019-02-09T13:05:02.870Z,48.99
2019-02-09T13:07:34.350Z,49.54
2019-02-09T13:10:06.919Z,48.75
2019-02-09T13:12:38.443Z,48.99
2019-02-09T13:15:13.831Z,49.79
2019-02-09T13:17:45.366Z,50.32
2019-02-09T13:20:20.060Z,51.00
2019-02-09T13:22:51.532Z,50.70
2019-02-09T13:25:23.415Z,51.55
2019-02-09T13:27:55.199Z,52.69
2019-02-09T13:30:32.105Z,54.38
2019-02-09T13:33:03.633Z,55.01
2019-02-09T13:35:36.087Z,55.79
2019-02-09T13:38:07.600Z,57.70
2019-02-09T13:40:39.806Z,59.03
2019-02-09T13:43:11.633Z,60.71
2019-02-09T13:45:47.755Z,61.11
2019-02-09T13:48:19.389Z,61.88
2019-02-09T13:50:51.007Z,62.61
2019-02-09T13:53:22.532Z,62.95
2019-02-09T13:55:54.101Z,63.84
2019-02-09T13:58:26.066Z,63.12
2019-02-09T14:00:57.675Z,62.47
2019-02-09T14:03:29.145Z,62.25
2019-02-09T14:06:07.887Z,62.32
2019-02-09T14:08:33.968Z,62.51
2019-02-09T14:11:05.553Z,61.98
2019-02-09T14:13:37.479Z,61.75
2019-02-09T14:16:10.879Z,61.35
2019-02-09T14:18:42.542Z,61.32
2019-02-09T14:21:14.322Z,60.88
2019-02-09T14:23:45.951Z,60.82
2019-02-09T14:26:17.815Z,60.65
2019-02-09T14:28:49.743Z,60.17
2019-02-09T14:31:21.906Z,60.58
2019-02-09T14:33:55.061Z,60.82
2019-02-09T14:36:26.830Z,60.50
2019-02-09T14:38:58.647Z,60.18
2019-02-09T14:41:30.551Z,60.25
2019-02-09T14:44:02.423Z,59.95
2019-02-09T14:46:34.251Z,59.83
2019-02-09T14:49:05.844Z,59.63
2019-02-09T14:51:38.769Z,59.09
2019-02-09T14:54:10.641Z,58.43
2019-02-09T14:56:42.406Z,58.46
2019-02-09T14:59:14.371Z,58.50
2019-02-09T15:01:45.906Z,57.98
2019-02-09T15:04:17.468Z,55.35
2019-02-09T15:06:49.094Z,54.05
2019-02-09T15:09:20.734Z,53.45
2019-02-09T15:11:52.514Z,54.71
2019-02-09T15:14:24.330Z,56.48
2019-02-09T15:17:05.038Z,56.69
2019-02-09T15:19:38.158Z,56.51
2019-02-09T15:22:10.032Z,56.70
2019-02-09T15:24:41.529Z,57.22
2019-02-09T15:27:13.151Z,57.69
2019-02-09T15:29:44.871Z,57.37
2019-02-09T15:32:16.649Z,58.25
2019-02-09T15:34:48.185Z,58.05
2019-02-09T15:37:19.854Z,58.49
2019-02-09T15:39:51.471Z,58.02
2019-02-09T15:42:23.377Z,57.78
2019-02-09T15:44:55.003Z,57.57
2019-02-09T15:47:26.905Z,57.47
2019-02-09T15:49:58.374Z,57.89
2019-02-09T15:52:30.229Z,57.74
2019-02-09T15:55:01.749Z,58.12
2019-02-09T15:57:33.740Z,58.38
2019-02-09T16:00:07.974Z,58.33
2019-02-09T16:02:39.915Z,58.50
2019-02-09T16:06:16.313Z,58.07
2019-02-09T16:08:47.990Z,58.75
2019-02-09T16:11:19.511Z,59.16
2019-02-09T16:13:51.365Z,59.50
2019-02-09T16:16:22.918Z,59.61
2019-02-09T16:18:54.680Z,60.09
2019-02-09T16:21:26.338Z,60.24
2019-02-09T16:23:58.204Z,60.09
2019-02-09T16:26:29.757Z,60.21
2019-02-09T16:29:01.485Z,60.31
2019-02-09T16:31:33.379Z,60.18
2019-02-09T16:34:05.228Z,60.24
2019-02-09T16:36:36.796Z,60.15
2019-02-09T16:39:10.181Z,59.94
2019-02-09T16:41:42.076Z,60.10
2019-02-09T16:44:14.218Z,59.94
2019-02-09T16:46:45.937Z,60.04
2019-02-09T16:49:17.816Z,59.90
2019-02-09T16:51:49.407Z,59.78
2019-02-09T16:54:21.264Z,59.68
2019-02-09T16:56:52.807Z,59.52
2019-02-09T16:59:24.764Z,59.17
2019-02-09T17:01:56.358Z,59.06
2019-02-09T17:04:33.086Z,58.96
2019-02-09T17:07:01.496Z,58.78
2019-02-09T17:09:33.417Z,58.38
2019-02-09T17:12:04.929Z,58.26
2019-02-09T17:14:36.967Z,57.89
2019-02-09T17:17:08.736Z,57.89
2019-02-09T17:19:40.347Z,57.57
2019-02-09T17:22:11.892Z,57.65
2019-02-09T17:24:43.600Z,57.71
2019-02-09T17:27:15.269Z,57.40
2019-02-09T17:29:46.823Z,57.12
2019-02-09T17:32:18.534Z,57.29
2019-02-09T17:34:50.219Z,57.09
2019-02-09T17:37:21.734Z,57.13
2019-02-09T17:39:53.524Z,57.20
2019-02-09T17:42:25.069Z,57.06
2019-02-09T17:44:56.865Z,57.05
2019-02-09T17:47:28.781Z,56.58
2019-02-09T17:50:00.745Z,56.57
2019-02-09T17:52:32.413Z,56.23
2019-02-09T17:55:04.261Z,55.87
2019-02-09T17:57:35.941Z,56.13
2019-02-09T18:00:14.012Z,56.19
2019-02-09T18:02:45.578Z,56.16
2019-02-09T18:05:17.340Z,56.03
2019-02-09T18:07:48.819Z,55.90
2019-02-09T18:10:20.963Z,56.07
2019-02-09T18:12:52.487Z,56.14
2019-02-09T18:15:24.277Z,56.19
2019-02-09T18:17:55.764Z,56.31
2019-02-09T18:20:27.967Z,56.03
2019-02-09T18:22:59.682Z,56.39
2019-02-09T18:25:31.407Z,56.34
2019-02-09T18:28:02.992Z,56.54
2019-02-09T18:30:34.682Z,56.01
2019-02-09T18:33:06.529Z,56.25
2019-02-09T18:35:38.557Z,56.60
2019-02-09T18:38:10.155Z,56.73
2019-02-09T18:40:41.630Z,57.13
2019-02-09T18:43:13.182Z,57.29
2019-02-09T18:45:44.888Z,57.12
2019-02-09T18:48:16.460Z,57.34
2019-02-09T18:50:48.119Z,57.47
2019-02-09T18:53:19.603Z,57.38
2019-02-09T18:55:51.645Z,57.43
2019-02-09T18:58:23.414Z,57.49
2019-02-09T19:00:55.322Z,57.55
2019-02-09T19:03:27.277Z,58.01
2019-02-09T19:05:59.260Z,58.27
2019-02-09T19:08:31.251Z,58.22
2019-02-09T19:11:02.895Z,58.20
2019-02-09T19:13:34.809Z,58.56
2019-02-09T19:16:07.529Z,58.51
2019-02-09T19:18:40.331Z,58.86
2019-02-09T19:21:16.243Z,59.30
2019-02-09T19:23:47.853Z,59.77
2019-02-09T19:26:19.993Z,59.98
2019-02-09T19:28:51.599Z,60.10
2019-02-09T19:31:23.412Z,60.43
2019-02-09T19:33:55.315Z,60.39
2019-02-09T19:36:27.120Z,60.50
2019-02-09T19:38:58.700Z,60.74
2019-02-09T19:41:30.436Z,60.66
2019-02-09T19:44:01.969Z,60.65
2019-02-09T19:46:33.841Z,60.56
2019-02-09T19:49:05.800Z,60.65
2019-02-09T19:51:37.689Z,60.41
2019-02-09T19:54:09.279Z,60.34
2019-02-09T19:56:41.120Z,60.33
2019-02-09T19:59:12.778Z,60.37
2019-02-09T20:01:44.837Z,60.24
2019-02-09T20:04:16.727Z,59.94
2019-02-09T20:06:48.744Z,59.83
2019-02-09T20:09:20.446Z,59.86
2019-02-09T20:11:52.893Z,59.97
2019-02-09T20:14:24.607Z,60.00
2019-02-09T20:16:56.606Z,59.74
2019-02-09T20:19:28.570Z,59.58
2019-02-09T20:22:00.532Z,59.64
2019-02-09T20:24:32.471Z,59.63
2019-02-09T20:27:04.672Z,59.49
2019-02-09T20:29:36.686Z,59.41
2019-02-09T20:32:08.440Z,59.54
2019-02-09T20:34:40.632Z,59.65
2019-02-09T20:37:13.039Z,59.77
2019-02-09T20:39:45.027Z,59.82
2019-02-09T20:42:16.858Z,59.86
2019-02-09T20:44:48.693Z,60.01
2019-02-09T20:47:20.375Z,60.00
2019-02-09T20:49:52.470Z,60.00
2019-02-09T20:52:25.340Z,60.34
2019-02-09T20:54:57.123Z,60.54
2019-02-09T20:57:28.896Z,60.63
2019-02-09T21:00:00.849Z,60.42
2019-02-09T21:02:33.229Z,60.54
2019-02-09T21:05:06.395Z,60.68
2019-02-09T21:07:38.326Z,61.06
2019-02-09T21:10:21.769Z,61.60
2019-02-09T21:12:54.488Z,61.60
2019-02-09T21:15:27.884Z,61.78
2019-02-09T21:18:01.826Z,61.68
2019-02-09T21:20:33.726Z,61.73
2019-02-09T21:23:06.518Z,61.89
2019-02-09T21:25:41.197Z,62.04
2019-02-09T21:28:13.330Z,61.94
2019-02-09T21:30:45.231Z,62.00
2019-02-09T21:33:17.541Z,62.30
2019-02-09T21:35:50.026Z,62.33
2019-02-09T21:38:22.189Z,62.18
2019-02-09T21:40:53.936Z,62.25
2019-02-09T21:43:26.939Z,62.49
2019-02-09T21:45:58.882Z,62.54
2019-02-09T21:48:31.136Z,62.62
2019-02-09T21:51:02.877Z,62.75
2019-02-09T21:53:34.885Z,62.53
2019-02-09T21:56:06.793Z,62.46
2019-02-09T21:58:38.902Z,62.86
2019-02-09T22:01:10.721Z,62.68
2019-02-09T22:03:42.637Z,62.71
2019-02-09T22:06:14.639Z,62.62
2019-02-09T22:08:46.896Z,62.41
2019-02-09T22:11:18.596Z,62.50
2019-02-09T22:13:50.406Z,62.61
2019-02-09T22:16:23.225Z,62.85
2019-02-09T22:18:55.361Z,63.02
2019-02-09T22:21:28.452Z,63.13
2019-02-09T22:24:00.385Z,63.11
2019-02-09T22:26:33.420Z,63.06
2019-02-09T22:29:05.449Z,62.86
2019-02-09T22:31:37.224Z,63.03
2019-02-09T22:34:09.341Z,63.13
2019-02-09T22:36:41.567Z,63.12
2019-02-09T22:39:13.605Z,63.32
2019-02-09T22:41:49.191Z,63.20
2019-02-09T22:44:18.649Z,63.23
2019-02-09T22:46:50.181Z,63.09
2019-02-09T22:49:22.112Z,62.69
2019-02-09T22:51:53.713Z,62.66
2019-02-09T22:54:25.335Z,62.69
2019-02-09T22:56:56.849Z,62.80
2019-02-09T22:59:28.420Z,62.84
2019-02-09T23:01:59.897Z,62.69
2019-02-09T23:05:15.208Z,62.45
2019-02-09T23:07:47.110Z,62.56
2019-02-09T23:10:18.954Z,62.64
2019-02-09T23:12:50.571Z,62.40
2019-02-09T23:15:22.448Z,62.05
2019-02-09T23:17:54.014Z,61.71
2019-02-09T23:20:25.652Z,61.68
2019-02-09T23:22:57.268Z,61.88
2019-02-09T23:25:28.964Z,61.84
2019-02-09T23:28:01.548Z,61.86
2019-02-09T23:30:33.322Z,61.70
2019-02-09T23:33:05.029Z,61.24
2019-02-09T23:35:36.594Z,61.33
2019-02-09T23:38:08.342Z,61.03
2019-02-09T23:40:39.886Z,60.73
2019-02-09T23:43:11.361Z,60.62
2019-02-09T23:45:42.827Z,60.51
2019-02-09T23:48:14.348Z,60.47
2019-02-09T23:50:45.936Z,60.45
2019-02-09T23:53:17.393Z,60.56
2019-02-09T23:55:49.153Z,60.63
2019-02-09T23:58:20.619Z,60.87
